sensor_id;sensor_type;location;lat;lon;timestamp;pressure;altitude;pressure_sealevel;temperature;humidity
60589;BME280;46421;48.610;9.334;2023-01-15T00:01:30;96870.00;;;11.05;71.91
60589;BME280;46421;48.610;9.334;2023-01-15T00:03:57;96873.69;;;11.04;72.00
60589;BME280;46421;48.610;9.334;2023-01-15T00:06:23;96866.31;;;11.06;72.67
60589;BME280;46421;48.610;9.334;2023-01-15T00:08:50;96867.13;;;11.07;72.80
60589;BME280;46421;48.610;9.334;2023-01-15T00:11:16;96839.75;;;11.00;73.83
60589;BME280;46421;48.610;9.334;2023-01-15T00:13:42;96847.94;;;10.91;74.00
60589;BME280;46421;48.610;9.334;2023-01-15T00:16:19;96843.63;;;10.90;74.18
60589;BME280;46421;48.610;9.334;2023-01-15T00:18:49;96847.13;;;10.78;75.86
60589;BME280;46421;48.610;9.334;2023-01-15T00:21:15;96843.63;;;10.90;73.87
60589;BME280;46421;48.610;9.334;2023-01-15T00:23:40;96836.91;;;10.95;73.20
60589;BME280;46421;48.610;9.334;2023-01-15T00:26:29;96825.41;;;11.01;72.73
60589;BME280;46421;48.610;9.334;2023-01-15T00:29:14;96807.81;;;11.06;71.69
60589;BME280;46421;48.610;9.334;2023-01-15T00:31:40;96826.59;;;11.18;70.51
60589;BME280;46421;48.610;9.334;2023-01-15T00:34:05;96823.47;;;11.35;69.49
60589;BME280;46421;48.610;9.334;2023-01-15T00:36:31;96800.72;;;11.39;69.17
60589;BME280;46421;48.610;9.334;2023-01-15T00:38:57;96808.84;;;11.51;69.08
60589;BME280;46421;48.610;9.334;2023-01-15T00:41:23;96806.59;;;11.54;69.04
60589;BME280;46421;48.610;9.334;2023-01-15T00:43:48;96797.41;;;11.50;69.51
60589;BME280;46421;48.610;9.334;2023-01-15T00:46:14;96793.25;;;11.61;68.85
60589;BME280;46421;48.610;9.334;2023-01-15T00:48:39;96805.94;;;11.59;68.84
60589;BME280;46421;48.610;9.334;2023-01-15T00:51:05;96801.78;;;11.70;68.45
60589;BME280;46421;48.610;9.334;2023-01-15T00:53:31;96771.81;;;11.49;67.85
60589;BME280;46421;48.610;9.334;2023-01-15T00:55:56;96791.16;;;11.63;67.88
60589;BME280;46421;48.610;9.334;2023-01-15T00:58:21;96798.50;;;11.68;67.08
60589;BME280;46421;48.610;9.334;2023-01-15T01:00:55;96776.84;;;11.64;67.81
60589;BME280;46421;48.610;9.334;2023-01-15T01:03:21;96782.75;;;11.66;67.85
60589;BME280;46421;48.610;9.334;2023-01-15T01:05:46;96769.34;;;11.48;68.64
60589;BME280;46421;48.610;9.334;2023-01-15T01:08:12;96764.66;;;11.43;69.89
60589;BME280;46421;48.610;9.334;2023-01-15T01:10:38;96767.38;;;11.36;71.73
60589;BME280;46421;48.610;9.334;2023-01-15T01:13:03;96776.31;;;10.97;79.88
60589;BME280;46421;48.610;9.334;2023-01-15T01:15:29;96770.94;;;10.58;84.13
60589;BME280;46421;48.610;9.334;2023-01-15T01:17:54;96750.72;;;10.30;85.00
60589;BME280;46421;48.610;9.334;2023-01-15T01:20:20;96754.97;;;10.31;85.53
60589;BME280;46421;48.610;9.334;2023-01-15T01:22:47;96762.16;;;10.17;86.92
60589;BME280;46421;48.610;9.334;2023-01-15T01:25:13;96755.41;;;10.21;87.71
60589;BME280;46421;48.610;9.334;2023-01-15T01:27:39;96737.66;;;10.22;87.93
60589;BME280;46421;48.610;9.334;2023-01-15T01:30:04;96739.28;;;10.16;87.42
60589;BME280;46421;48.610;9.334;2023-01-15T01:32:30;96740.28;;;10.35;86.65
60589;BME280;46421;48.610;9.334;2023-01-15T01:34:55;96723.50;;;10.35;84.88
60589;BME280;46421;48.610;9.334;2023-01-15T01:37:21;96721.69;;;10.49;83.64
60589;BME280;46421;48.610;9.334;2023-01-15T01:39:46;96735.81;;;10.49;84.36
60589;BME280;46421;48.610;9.334;2023-01-15T01:42:16;96739.88;;;10.52;85.14
60589;BME280;46421;48.610;9.334;2023-01-15T01:47:10;96734.97;;;10.55;82.61
60589;BME280;46421;48.610;9.334;2023-01-15T01:49:39;96747.75;;;10.79;80.20
60589;BME280;46421;48.610;9.334;2023-01-15T01:52:12;96736.28;;;10.91;79.33
60589;BME280;46421;48.610;9.334;2023-01-15T01:54:40;96739.09;;;10.97;79.04
60589;BME280;46421;48.610;9.334;2023-01-15T01:57:07;96720.72;;;10.95;79.17
60589;BME280;46421;48.610;9.334;2023-01-15T01:59:34;96713.81;;;10.87;79.38
60589;BME280;46421;48.610;9.334;2023-01-15T02:02:01;96737.19;;;11.17;76.94
60589;BME280;46421;48.610;9.334;2023-01-15T02:04:27;96718.56;;;11.17;77.20
60589;BME280;46421;48.610;9.334;2023-01-15T02:06:53;96713.78;;;11.33;75.94
60589;BME280;46421;48.610;9.334;2023-01-15T02:09:19;96718.72;;;11.29;76.79
60589;BME280;46421;48.610;9.334;2023-01-15T02:11:44;96695.16;;;11.33;75.36
60589;BME280;46421;48.610;9.334;2023-01-15T02:17:00;96704.34;;;11.37;76.07
60589;BME280;46421;48.610;9.334;2023-01-15T02:28:02;96692.66;;;11.38;75.20
60589;BME280;46421;48.610;9.334;2023-01-15T02:30:41;96697.09;;;11.51;74.89
60589;BME280;46421;48.610;9.334;2023-01-15T02:33:19;96685.84;;;11.49;74.82
60589;BME280;46421;48.610;9.334;2023-01-15T02:35:58;96685.63;;;11.50;75.01
60589;BME280;46421;48.610;9.334;2023-01-15T02:38:35;96679.63;;;11.55;74.99
60589;BME280;46421;48.610;9.334;2023-01-15T02:41:02;96680.88;;;11.52;75.45
60589;BME280;46421;48.610;9.334;2023-01-15T02:43:33;96683.13;;;11.55;75.48
60589;BME280;46421;48.610;9.334;2023-01-15T02:46:00;96687.63;;;11.55;75.48
60589;BME280;46421;48.610;9.334;2023-01-15T02:48:29;96689.25;;;11.56;75.14
60589;BME280;46421;48.610;9.334;2023-01-15T02:51:03;96676.66;;;11.45;75.77
60589;BME280;46421;48.610;9.334;2023-01-15T02:53:32;96674.41;;;11.42;76.20
60589;BME280;46421;48.610;9.334;2023-01-15T02:56:04;96675.00;;;11.50;74.79
60589;BME280;46421;48.610;9.334;2023-01-15T02:58:34;96683.34;;;11.54;75.70
60589;BME280;46421;48.610;9.334;2023-01-15T03:01:07;96688.47;;;11.55;76.15
60589;BME280;46421;48.610;9.334;2023-01-15T03:03:50;96683.13;;;11.55;75.94
60589;BME280;46421;48.610;9.334;2023-01-15T03:06:21;96668.97;;;11.62;76.01
60589;BME280;46421;48.610;9.334;2023-01-15T03:08:49;96649.94;;;11.58;76.07
60589;BME280;46421;48.610;9.334;2023-01-15T03:11:16;96652.19;;;11.61;76.27
60589;BME280;46421;48.610;9.334;2023-01-15T03:14:01;96656.91;;;11.59;76.52
60589;BME280;46421;48.610;9.334;2023-01-15T03:16:34;96658.16;;;11.57;76.55
60589;BME280;46421;48.610;9.334;2023-01-15T03:19:10;96660.16;;;11.61;76.49
60589;BME280;46421;48.610;9.334;2023-01-15T03:21:57;96649.06;;;11.64;76.07
60589;BME280;46421;48.610;9.334;2023-01-15T03:24:30;96649.91;;;11.65;76.20
60589;BME280;46421;48.610;9.334;2023-01-15T03:26:56;96650.25;;;11.43;83.27
60589;BME280;46421;48.610;9.334;2023-01-15T03:29:24;96648.53;;;10.91;89.48
60589;BME280;46421;48.610;9.334;2023-01-15T03:31:51;96656.25;;;10.61;92.45
60589;BME280;46421;48.610;9.334;2023-01-15T03:34:17;96654.03;;;10.51;91.77
60589;BME280;46421;48.610;9.334;2023-01-15T03:36:42;96665.66;;;10.50;90.30
60589;BME280;46421;48.610;9.334;2023-01-15T03:39:08;96661.19;;;10.51;89.79
60589;BME280;46421;48.610;9.334;2023-01-15T03:41:49;96655.41;;;10.67;88.14
60589;BME280;46421;48.610;9.334;2023-01-15T03:44:39;96660.25;;;10.77;86.30
60589;BME280;46421;48.610;9.334;2023-01-15T03:47:34;96658.03;;;10.74;87.22
60589;BME280;46421;48.610;9.334;2023-01-15T03:50:17;96670.69;;;10.79;86.67
60589;BME280;46421;48.610;9.334;2023-01-15T03:52:57;96667.63;;;10.75;86.87
60589;BME280;46421;48.610;9.334;2023-01-15T04:01:09;96643.28;;;10.78;89.27
60589;BME280;46421;48.610;9.334;2023-01-15T04:03:37;96637.44;;;10.56;91.41
60589;BME280;46421;48.610;9.334;2023-01-15T04:06:04;96648.13;;;10.49;92.31
60589;BME280;46421;48.610;9.334;2023-01-15T04:08:32;96660.75;;;10.54;91.31
60589;BME280;46421;48.610;9.334;2023-01-15T04:11:00;96664.25;;;10.48;93.29
60589;BME280;46421;48.610;9.334;2023-01-15T04:13:27;96658.53;;;10.51;91.18
60589;BME280;46421;48.610;9.334;2023-01-15T04:15:53;96659.34;;;10.51;90.96
60589;BME280;46421;48.610;9.334;2023-01-15T04:18:19;96657.47;;;10.58;90.67
60589;BME280;46421;48.610;9.334;2023-01-15T04:20:44;96648.91;;;10.56;91.23
60589;BME280;46421;48.610;9.334;2023-01-15T04:23:10;96646.44;;;10.55;91.09
60589;BME280;46421;48.610;9.334;2023-01-15T04:25:36;96657.44;;;10.65;90.51
60589;BME280;46421;48.610;9.334;2023-01-15T04:28:01;96642.31;;;10.66;89.92
60589;BME280;46421;48.610;9.334;2023-01-15T04:30:27;96640.03;;;10.69;89.62
60589;BME280;46421;48.610;9.334;2023-01-15T04:32:52;96629.25;;;10.64;89.30
60589;BME280;46421;48.610;9.334;2023-01-15T04:35:18;96614.53;;;10.68;90.00
60589;BME280;46421;48.610;9.334;2023-01-15T04:37:44;96607.13;;;10.70;89.01
60589;BME280;46421;48.610;9.334;2023-01-15T04:40:10;96615.31;;;10.69;89.57
60589;BME280;46421;48.610;9.334;2023-01-15T04:42:56;96619.78;;;10.75;88.47
60589;BME280;46421;48.610;9.334;2023-01-15T04:45:42;96630.00;;;10.78;87.59
60589;BME280;46421;48.610;9.334;2023-01-15T04:48:07;96616.66;;;10.85;87.48
60589;BME280;46421;48.610;9.334;2023-01-15T04:50:33;96614.59;;;10.87;87.37
60589;BME280;46421;48.610;9.334;2023-01-15T04:52:58;96615.69;;;10.79;87.00
60589;BME280;46421;48.610;9.334;2023-01-15T04:55:23;96610.94;;;10.81;86.36
60589;BME280;46421;48.610;9.334;2023-01-15T04:57:49;96611.94;;;10.94;84.54
60589;BME280;46421;48.610;9.334;2023-01-15T05:00:15;96614.75;;;10.99;84.65
60589;BME280;46421;48.610;9.334;2023-01-15T05:02:40;96611.66;;;11.02;83.88
60589;BME280;46421;48.610;9.334;2023-01-15T05:05:06;96605.31;;;11.03;83.83
60589;BME280;46421;48.610;9.334;2023-01-15T05:07:31;96598.16;;;11.03;82.55
60589;BME280;46421;48.610;9.334;2023-01-15T05:09:57;96601.59;;;11.11;81.90
60589;BME280;46421;48.610;9.334;2023-01-15T05:12:22;96598.66;;;11.19;81.36
60589;BME280;46421;48.610;9.334;2023-01-15T05:14:48;96599.09;;;11.16;82.02
60589;BME280;46421;48.610;9.334;2023-01-15T05:17:13;96611.34;;;11.17;81.59
60589;BME280;46421;48.610;9.334;2023-01-15T05:19:39;96606.41;;;11.20;80.40
60589;BME280;46421;48.610;9.334;2023-01-15T05:22:04;96599.91;;;11.16;81.33
60589;BME280;46421;48.610;9.334;2023-01-15T05:24:30;96608.91;;;11.15;82.48
60589;BME280;46421;48.610;9.334;2023-01-15T05:26:55;96587.22;;;11.18;81.46
60589;BME280;46421;48.610;9.334;2023-01-15T05:29:22;96594.34;;;11.25;80.44
60589;BME280;46421;48.610;9.334;2023-01-15T05:31:47;96585.38;;;11.19;81.39
60589;BME280;46421;48.610;9.334;2023-01-15T05:34:13;96597.41;;;11.21;82.46
60589;BME280;46421;48.610;9.334;2023-01-15T05:36:38;96604.47;;;11.09;84.07
60589;BME280;46421;48.610;9.334;2023-01-15T05:39:04;96602.88;;;11.01;85.01
60589;BME280;46421;48.610;9.334;2023-01-15T05:41:30;96615.59;;;10.93;85.29
60589;BME280;46421;48.610;9.334;2023-01-15T05:44:14;96608.66;;;10.91;84.54
60589;BME280;46421;48.610;9.334;2023-01-15T05:46:41;96617.03;;;10.95;84.78
60589;BME280;46421;48.610;9.334;2023-01-15T05:49:09;96620.53;;;10.89;85.48
60589;BME280;46421;48.610;9.334;2023-01-15T05:51:35;96614.34;;;10.95;85.45
60589;BME280;46421;48.610;9.334;2023-01-15T05:54:02;96611.53;;;10.90;85.85
60589;BME280;46421;48.610;9.334;2023-01-15T05:56:27;96605.63;;;10.81;86.75
60589;BME280;46421;48.610;9.334;2023-01-15T05:58:53;96610.78;;;10.76;88.47
60589;BME280;46421;48.610;9.334;2023-01-15T06:01:19;96606.53;;;10.68;89.63
60589;BME280;46421;48.610;9.334;2023-01-15T06:03:44;96626.06;;;10.42;96.39
60589;BME280;46421;48.610;9.334;2023-01-15T06:06:16;96629.56;;;10.22;100.00
60589;BME280;46421;48.610;9.334;2023-01-15T06:08:42;96642.09;;;10.02;100.00
60589;BME280;46421;48.610;9.334;2023-01-15T06:11:07;96673.94;;;9.88;100.00
60589;BME280;46421;48.610;9.334;2023-01-15T06:13:33;96705.78;;;9.48;100.00
60589;BME280;46421;48.610;9.334;2023-01-15T06:15:59;96716.25;;;8.94;100.00
60589;BME280;46421;48.610;9.334;2023-01-15T06:18:25;96708.41;;;8.66;100.00
60589;BME280;46421;48.610;9.334;2023-01-15T06:20:50;96709.41;;;8.30;100.00
60589;BME280;46421;48.610;9.334;2023-01-15T06:23:16;96692.56;;;8.09;100.00
60589;BME280;46421;48.610;9.334;2023-01-15T06:25:42;96719.69;;;8.11;100.00
60589;BME280;46421;48.610;9.334;2023-01-15T06:28:08;96706.34;;;7.98;100.00
60589;BME280;46421;48.610;9.334;2023-01-15T06:30:34;96734.06;;;8.02;100.00
60589;BME280;46421;48.610;9.334;2023-01-15T06:33:01;96733.22;;;8.01;100.00
60589;BME280;46421;48.610;9.334;2023-01-15T06:35:26;96718.06;;;7.60;100.00
60589;BME280;46421;48.610;9.334;2023-01-15T06:37:52;96740.84;;;7.83;100.00
60589;BME280;46421;48.610;9.334;2023-01-15T06:40:17;96745.28;;;7.82;100.00
60589;BME280;46421;48.610;9.334;2023-01-15T06:42:43;96756.19;;;7.94;100.00
60589;BME280;46421;48.610;9.334;2023-01-15T06:45:39;96747.50;;;7.79;100.00
60589;BME280;46421;48.610;9.334;2023-01-15T06:48:25;96777.03;;;7.82;100.00
60589;BME280;46421;48.610;9.334;2023-01-15T06:50:51;96767.03;;;7.78;100.00
60589;BME280;46421;48.610;9.334;2023-01-15T06:53:18;96771.56;;;7.62;100.00
60589;BME280;46421;48.610;9.334;2023-01-15T06:55:43;96785.28;;;7.94;100.00
60589;BME280;46421;48.610;9.334;2023-01-15T06:58:09;96794.78;;;8.10;100.00
60589;BME280;46421;48.610;9.334;2023-01-15T07:00:34;96790.59;;;7.72;100.00
60589;BME280;46421;48.610;9.334;2023-01-15T07:03:00;96789.47;;;7.60;100.00
60589;BME280;46421;48.610;9.334;2023-01-15T07:05:26;96794.22;;;7.50;100.00
60589;BME280;46421;48.610;9.334;2023-01-15T07:07:52;96804.38;;;7.46;100.00
60589;BME280;46421;48.610;9.334;2023-01-15T07:10:18;96818.31;;;7.77;100.00
60589;BME280;46421;48.610;9.334;2023-01-15T07:12:43;96827.81;;;7.49;100.00
60589;BME280;46421;48.610;9.334;2023-01-15T07:15:09;96839.22;;;7.71;100.00
60589;BME280;46421;48.610;9.334;2023-01-15T07:17:34;96842.84;;;7.49;100.00
60589;BME280;46421;48.610;9.334;2023-01-15T07:19:59;96851.16;;;7.46;100.00
60589;BME280;46421;48.610;9.334;2023-01-15T07:22:25;96861.63;;;7.54;100.00
60589;BME280;46421;48.610;9.334;2023-01-15T07:24:50;96867.72;;;7.54;100.00
60589;BME280;46421;48.610;9.334;2023-01-15T07:27:16;96876.25;;;7.71;100.00
60589;BME280;46421;48.610;9.334;2023-01-15T07:29:41;96880.41;;;7.44;100.00
60589;BME280;46421;48.610;9.334;2023-01-15T07:32:06;96873.13;;;7.46;100.00
60589;BME280;46421;48.610;9.334;2023-01-15T07:34:32;96888.44;;;7.51;100.00
60589;BME280;46421;48.610;9.334;2023-01-15T07:36:57;96896.00;;;7.39;100.00
60589;BME280;46421;48.610;9.334;2023-01-15T07:39:22;96895.66;;;7.27;100.00
60589;BME280;46421;48.610;9.334;2023-01-15T07:41:48;96910.13;;;7.46;100.00
60589;BME280;46421;48.610;9.334;2023-01-15T07:44:32;96917.34;;;7.37;100.00
60589;BME280;46421;48.610;9.334;2023-01-15T07:47:19;96930.56;;;7.37;100.00
60589;BME280;46421;48.610;9.334;2023-01-15T07:50:07;96932.94;;;7.32;100.00
60589;BME280;46421;48.610;9.334;2023-01-15T07:52:33;96938.41;;;7.16;100.00
60589;BME280;46421;48.610;9.334;2023-01-15T07:54:58;96956.09;;;7.30;100.00
60589;BME280;46421;48.610;9.334;2023-01-15T07:57:25;96958.69;;;7.00;100.00
60589;BME280;46421;48.610;9.334;2023-01-15T07:59:51;96964.50;;;7.34;100.00
60589;BME280;46421;48.610;9.334;2023-01-15T08:02:16;96976.63;;;7.28;100.00
60589;BME280;46421;48.610;9.334;2023-01-15T08:04:42;96972.16;;;6.75;100.00
60589;BME280;46421;48.610;9.334;2023-01-15T08:07:08;96974.47;;;7.08;100.00
60589;BME280;46421;48.610;9.334;2023-01-15T08:09:33;96986.28;;;7.21;100.00
60589;BME280;46421;48.610;9.334;2023-01-15T08:12:00;96981.88;;;7.13;100.00
60589;BME280;46421;48.610;9.334;2023-01-15T08:14:44;96980.22;;;7.12;100.00
60589;BME280;46421;48.610;9.334;2023-01-15T08:17:29;96983.69;;;7.27;100.00
60589;BME280;46421;48.610;9.334;2023-01-15T08:19:54;96982.06;;;6.73;100.00
60589;BME280;46421;48.610;9.334;2023-01-15T08:22:19;96991.00;;;6.72;100.00
60589;BME280;46421;48.610;9.334;2023-01-15T08:24:45;96999.44;;;6.91;100.00
60589;BME280;46421;48.610;9.334;2023-01-15T08:27:11;97006.66;;;7.12;100.00
60589;BME280;46421;48.610;9.334;2023-01-15T08:29:37;97005.53;;;6.91;100.00
60589;BME280;46421;48.610;9.334;2023-01-15T08:32:03;97008.22;;;6.68;100.00
60589;BME280;46421;48.610;9.334;2023-01-15T08:34:28;97015.59;;;6.49;100.00
60589;BME280;46421;48.610;9.334;2023-01-15T08:36:54;97014.44;;;6.90;100.00
60589;BME280;46421;48.610;9.334;2023-01-15T08:39:24;97035.66;;;6.82;100.00
60589;BME280;46421;48.610;9.334;2023-01-15T08:41:49;97034.31;;;6.63;100.00
60589;BME280;46421;48.610;9.334;2023-01-15T08:44:15;97035.13;;;6.40;100.00
60589;BME280;46421;48.610;9.334;2023-01-15T08:46:41;97041.00;;;6.74;100.00
60589;BME280;46421;48.610;9.334;2023-01-15T08:49:09;97048.91;;;6.97;100.00
60589;BME280;46421;48.610;9.334;2023-01-15T08:51:35;97062.22;;;7.04;100.00
60589;BME280;46421;48.610;9.334;2023-01-15T08:54:00;97054.56;;;6.71;100.00
60589;BME280;46421;48.610;9.334;2023-01-15T08:56:25;97054.97;;;6.83;100.00
60589;BME280;46421;48.610;9.334;2023-01-15T08:58:51;97072.69;;;6.97;100.00
60589;BME280;46421;48.610;9.334;2023-01-15T09:01:17;97074.97;;;7.00;100.00
60589;BME280;46421;48.610;9.334;2023-01-15T09:03:42;97080.22;;;6.85;100.00
60589;BME280;46421;48.610;9.334;2023-01-15T09:06:08;97087.53;;;6.52;100.00
60589;BME280;46421;48.610;9.334;2023-01-15T09:08:35;97091.47;;;6.56;100.00
60589;BME280;46421;48.610;9.334;2023-01-15T09:11:01;97086.13;;;6.41;100.00
60589;BME280;46421;48.610;9.334;2023-01-15T09:13:27;97090.22;;;6.43;100.00
60589;BME280;46421;48.610;9.334;2023-01-15T09:15:53;97089.28;;;6.36;100.00
60589;BME280;46421;48.610;9.334;2023-01-15T09:18:19;97083.59;;;6.47;100.00
60589;BME280;46421;48.610;9.334;2023-01-15T09:20:48;97090.19;;;6.75;100.00
60589;BME280;46421;48.610;9.334;2023-01-15T09:23:14;97101.16;;;6.87;100.00
60589;BME280;46421;48.610;9.334;2023-01-15T09:25:40;97098.22;;;6.58;100.00
60589;BME280;46421;48.610;9.334;2023-01-15T09:28:06;97109.38;;;6.69;100.00
60589;BME280;46421;48.610;9.334;2023-01-15T09:30:31;97102.47;;;6.36;100.00
60589;BME280;46421;48.610;9.334;2023-01-15T09:32:57;97113.66;;;6.38;100.00
60589;BME280;46421;48.610;9.334;2023-01-15T09:35:22;97121.50;;;6.23;100.00
60589;BME280;46421;48.610;9.334;2023-01-15T09:37:52;97128.88;;;6.36;100.00
60589;BME280;46421;48.610;9.334;2023-01-15T09:43:08;97118.41;;;6.11;100.00
60589;BME280;46421;48.610;9.334;2023-01-15T09:45:45;97125.25;;;6.37;100.00
60589;BME280;46421;48.610;9.334;2023-01-15T09:54:27;97121.63;;;6.30;100.00
60589;BME280;46421;48.610;9.334;2023-01-15T09:56:23;97115.75;;;6.20;100.00
60589;BME280;46421;48.610;9.334;2023-01-15T09:58:50;97126.28;;;6.28;100.00
60589;BME280;46421;48.610;9.334;2023-01-15T10:01:19;97125.09;;;6.30;100.00
60589;BME280;46421;48.610;9.334;2023-01-15T10:03:58;97114.81;;;5.88;100.00
60589;BME280;46421;48.610;9.334;2023-01-15T10:06:35;97138.88;;;5.84;100.00
60589;BME280;46421;48.610;9.334;2023-01-15T10:09:11;97140.75;;;5.76;100.00
60589;BME280;46421;48.610;9.334;2023-01-15T10:11:44;97136.22;;;5.93;100.00
60589;BME280;46421;48.610;9.334;2023-01-15T10:23:30;97177.75;;;6.15;100.00
60589;BME280;46421;48.610;9.334;2023-01-15T10:28:50;97174.81;;;6.10;100.00
60589;BME280;46421;48.610;9.334;2023-01-15T10:31:21;97181.06;;;6.09;100.00
60589;BME280;46421;48.610;9.334;2023-01-15T10:33:55;97193.41;;;6.33;100.00
60589;BME280;46421;48.610;9.334;2023-01-15T10:36:48;97190.38;;;6.45;100.00
60589;BME280;46421;48.610;9.334;2023-01-15T10:42:08;97199.03;;;6.22;100.00
60589;BME280;46421;48.610;9.334;2023-01-15T10:45:12;97194.25;;;6.17;100.00
60589;BME280;46421;48.610;9.334;2023-01-15T10:47:42;97192.28;;;6.11;100.00
60589;BME280;46421;48.610;9.334;2023-01-15T10:50:19;97192.13;;;6.13;100.00
60589;BME280;46421;48.610;9.334;2023-01-15T10:53:10;97193.63;;;5.91;100.00
60589;BME280;46421;48.610;9.334;2023-01-15T10:55:45;97181.59;;;5.88;100.00
60589;BME280;46421;48.610;9.334;2023-01-15T10:58:36;97198.25;;;5.80;100.00
60589;BME280;46421;48.610;9.334;2023-01-15T11:01:07;97196.28;;;5.74;100.00
60589;BME280;46421;48.610;9.334;2023-01-15T11:03:37;97189.38;;;5.48;100.00
60589;BME280;46421;48.610;9.334;2023-01-15T11:06:03;97200.91;;;5.64;100.00
60589;BME280;46421;48.610;9.334;2023-01-15T11:08:33;97194.97;;;5.37;100.00
60589;BME280;46421;48.610;9.334;2023-01-15T11:11:15;97201.72;;;5.31;100.00
60589;BME280;46421;48.610;9.334;2023-01-15T11:13:51;97203.88;;;5.36;100.00
60589;BME280;46421;48.610;9.334;2023-01-15T11:16:36;97213.28;;;5.47;100.00
60589;BME280;46421;48.610;9.334;2023-01-15T11:19:33;97219.53;;;5.70;100.00
60589;BME280;46421;48.610;9.334;2023-01-15T11:22:06;97228.94;;;5.65;100.00
60589;BME280;46421;48.610;9.334;2023-01-15T11:24:36;97228.75;;;5.58;100.00
60589;BME280;46421;48.610;9.334;2023-01-15T11:27:04;97224.31;;;5.50;100.00
60589;BME280;46421;48.610;9.334;2023-01-15T11:29:33;97235.84;;;5.58;100.00
60589;BME280;46421;48.610;9.334;2023-01-15T11:32:01;97232.06;;;5.60;100.00
60589;BME280;46421;48.610;9.334;2023-01-15T11:34:26;97251.19;;;5.62;100.00
60589;BME280;46421;48.610;9.334;2023-01-15T11:37:03;97255.44;;;5.80;100.00
60589;BME280;46421;48.610;9.334;2023-01-15T11:39:29;97260.88;;;5.78;100.00
60589;BME280;46421;48.610;9.334;2023-01-15T11:42:11;97261.88;;;5.77;100.00
60589;BME280;46421;48.610;9.334;2023-01-15T11:44:57;97280.03;;;5.80;100.00
60589;BME280;46421;48.610;9.334;2023-01-15T11:47:51;97283.97;;;5.76;100.00
60589;BME280;46421;48.610;9.334;2023-01-15T11:50:55;97295.84;;;5.80;100.00
60589;BME280;46421;48.610;9.334;2023-01-15T11:53:34;97303.44;;;5.75;100.00
60589;BME280;46421;48.610;9.334;2023-01-15T11:56:05;97317.72;;;5.40;100.00
60589;BME280;46421;48.610;9.334;2023-01-15T11:58:50;97321.31;;;5.30;100.00
60589;BME280;46421;48.610;9.334;2023-01-15T12:01:30;97310.38;;;5.09;100.00
60589;BME280;46421;48.610;9.334;2023-01-15T12:04:02;97309.47;;;4.91;98.32
60589;BME280;46421;48.610;9.334;2023-01-15T12:06:29;97309.78;;;4.80;100.00
60589;BME280;46421;48.610;9.334;2023-01-15T12:17:05;97326.34;;;4.72;100.00
60589;BME280;46421;48.610;9.334;2023-01-15T12:19:44;97327.38;;;4.80;100.00
60589;BME280;46421;48.610;9.334;2023-01-15T12:22:58;97327.69;;;4.42;97.14
60589;BME280;46421;48.610;9.334;2023-01-15T12:25:36;97347.44;;;4.46;99.56
60589;BME280;46421;48.610;9.334;2023-01-15T12:28:11;97346.66;;;4.54;100.00
60589;BME280;46421;48.610;9.334;2023-01-15T12:30:47;97355.63;;;4.69;98.13
60589;BME280;46421;48.610;9.334;2023-01-15T12:36:28;97346.66;;;4.80;99.90
60589;BME280;46421;48.610;9.334;2023-01-15T12:38:59;97350.97;;;4.89;97.70
60589;BME280;46421;48.610;9.334;2023-01-15T12:41:37;97346.38;;;4.65;99.06
60589;BME280;46421;48.610;9.334;2023-01-15T12:47:38;97349.25;;;4.46;96.94
60589;BME280;46421;48.610;9.334;2023-01-15T12:50:26;97337.94;;;4.53;100.00
60589;BME280;46421;48.610;9.334;2023-01-15T12:53:02;97340.59;;;4.62;95.54
60589;BME280;46421;48.610;9.334;2023-01-15T12:55:33;97339.47;;;4.64;97.73
60589;BME280;46421;48.610;9.334;2023-01-15T12:58:04;97341.88;;;4.49;98.97
60589;BME280;46421;48.610;9.334;2023-01-15T13:00:41;97334.31;;;4.54;99.01
60589;BME280;46421;48.610;9.334;2023-01-15T13:06:06;97346.03;;;4.34;98.95
60589;BME280;46421;48.610;9.334;2023-01-15T13:08:49;97341.28;;;4.37;97.22
60589;BME280;46421;48.610;9.334;2023-01-15T13:11:19;97353.94;;;4.34;97.19
60589;BME280;46421;48.610;9.334;2023-01-15T13:13:44;97350.06;;;4.46;96.49
60589;BME280;46421;48.610;9.334;2023-01-15T13:16:49;97358.88;;;4.37;98.48
60589;BME280;46421;48.610;9.334;2023-01-15T13:19:47;97357.91;;;4.38;95.31
60589;BME280;46421;48.610;9.334;2023-01-15T13:22:26;97351.91;;;4.27;97.45
60589;BME280;46421;48.610;9.334;2023-01-15T13:30:31;97361.81;;;4.34;96.24
60589;BME280;46421;48.610;9.334;2023-01-15T13:32:55;97362.53;;;4.44;96.44
60589;BME280;46421;48.610;9.334;2023-01-15T13:35:29;97376.09;;;4.49;96.17
60589;BME280;46421;48.610;9.334;2023-01-15T13:37:59;97372.19;;;4.62;97.13
60589;BME280;46421;48.610;9.334;2023-01-15T13:40:33;97369.84;;;4.77;96.04
60589;BME280;46421;48.610;9.334;2023-01-15T13:43:01;97384.38;;;4.63;94.04
60589;BME280;46421;48.610;9.334;2023-01-15T13:45:39;97374.47;;;4.56;95.57
60589;BME280;46421;48.610;9.334;2023-01-15T13:50:50;97399.44;;;4.70;95.76
60589;BME280;46421;48.610;9.334;2023-01-15T13:53:25;97392.59;;;4.59;96.90
60589;BME280;46421;48.610;9.334;2023-01-15T13:55:53;97402.13;;;4.61;96.73
60589;BME280;46421;48.610;9.334;2023-01-15T13:58:24;97404.31;;;4.65;95.87
60589;BME280;46421;48.610;9.334;2023-01-15T14:01:00;97386.28;;;4.79;95.17
60589;BME280;46421;48.610;9.334;2023-01-15T14:03:28;97387.38;;;4.68;93.96
60589;BME280;46421;48.610;9.334;2023-01-15T14:05:59;97396.31;;;4.75;92.95
60589;BME280;46421;48.610;9.334;2023-01-15T14:08:28;97387.22;;;4.69;93.37
60589;BME280;46421;48.610;9.334;2023-01-15T14:11:00;97383.13;;;4.75;91.78
60589;BME280;46421;48.610;9.334;2023-01-15T14:13:39;97378.19;;;4.72;90.15
60589;BME280;46421;48.610;9.334;2023-01-15T14:21:43;97383.84;;;4.85;90.00
60589;BME280;46421;48.610;9.334;2023-01-15T14:24:34;97388.81;;;4.88;88.57
60589;BME280;46421;48.610;9.334;2023-01-15T14:27:15;97390.50;;;4.98;87.83
60589;BME280;46421;48.610;9.334;2023-01-15T14:33:18;97386.84;;;4.90;88.79
60589;BME280;46421;48.610;9.334;2023-01-15T14:35:46;97378.19;;;4.72;86.77
60589;BME280;46421;48.610;9.334;2023-01-15T14:38:15;97376.72;;;4.69;89.85